sensor_id;sensor_type;location;lat;lon;timestamp;temperature;humidity
59881;DHT22;45751;51.380;10.326;2022-09-09T00:09:29;14.70;99.80
59881;DHT22;45751;51.380;10.326;2022-09-09T00:12:12;14.70;99.90
59881;DHT22;45751;51.380;10.326;2022-09-09T00:15:05;14.70;99.90
59881;DHT22;45751;51.380;10.326;2022-09-09T00:17:43;14.70;99.90
59881;DHT22;45751;51.380;10.326;2022-09-09T00:20:35;14.60;99.90
59881;DHT22;45751;51.380;10.326;2022-09-09T00:23:15;14.60;99.90
59881;DHT22;45751;51.380;10.326;2022-09-09T00:25:55;14.50;99.90
59881;DHT22;45751;51.380;10.326;2022-09-09T00:28:27;14.50;99.90
59881;DHT22;45751;51.380;10.326;2022-09-09T00:30:56;14.50;99.90
59881;DHT22;45751;51.380;10.326;2022-09-09T00:33:25;14.40;99.90
59881;DHT22;45751;51.380;10.326;2022-09-09T00:36:02;14.40;99.90
59881;DHT22;45751;51.380;10.326;2022-09-09T00:38:47;14.30;99.90
59881;DHT22;45751;51.380;10.326;2022-09-09T00:41:23;14.30;99.90
59881;DHT22;45751;51.380;10.326;2022-09-09T00:43:59;14.30;99.90
59881;DHT22;45751;51.380;10.326;2022-09-09T00:49:32;14.30;99.90
59881;DHT22;45751;51.380;10.326;2022-09-09T00:54:47;14.30;99.90
59881;DHT22;45751;51.380;10.326;2022-09-09T00:59:58;14.20;99.90
59881;DHT22;45751;51.380;10.326;2022-09-09T01:03:17;14.30;99.90
59881;DHT22;45751;51.380;10.326;2022-09-09T01:08:43;14.30;99.90
59881;DHT22;45751;51.380;10.326;2022-09-09T01:14:16;14.30;99.90
59881;DHT22;45751;51.380;10.326;2022-09-09T01:16:46;14.30;99.90
59881;DHT22;45751;51.380;10.326;2022-09-09T01:19:24;14.30;99.90
59881;DHT22;45751;51.380;10.326;2022-09-09T01:22:11;14.20;99.90
59881;DHT22;45751;51.380;10.326;2022-09-09T01:28:05;14.20;99.90
59881;DHT22;45751;51.380;10.326;2022-09-09T01:30:38;14.10;99.90
59881;DHT22;45751;51.380;10.326;2022-09-09T01:33:14;14.20;99.90
59881;DHT22;45751;51.380;10.326;2022-09-09T01:35:52;14.10;99.90
59881;DHT22;45751;51.380;10.326;2022-09-09T01:38:29;14.10;99.90
59881;DHT22;45751;51.380;10.326;2022-09-09T01:40:57;14.10;99.90
59881;DHT22;45751;51.380;10.326;2022-09-09T01:43:33;14.10;99.90
59881;DHT22;45751;51.380;10.326;2022-09-09T01:46:01;14.10;99.90
59881;DHT22;45751;51.380;10.326;2022-09-09T01:48:31;14.10;99.90
59881;DHT22;45751;51.380;10.326;2022-09-09T01:51:04;14.00;99.90
59881;DHT22;45751;51.380;10.326;2022-09-09T01:53:31;14.00;99.90
59881;DHT22;45751;51.380;10.326;2022-09-09T01:56:07;14.10;99.90
59881;DHT22;45751;51.380;10.326;2022-09-09T01:59:00;14.10;99.90
59881;DHT22;45751;51.380;10.326;2022-09-09T02:01:41;14.10;99.90
59881;DHT22;45751;51.380;10.326;2022-09-09T02:04:16;14.10;99.90
59881;DHT22;45751;51.380;10.326;2022-09-09T02:06:46;14.00;99.90
59881;DHT22;45751;51.380;10.326;2022-09-09T02:09:24;14.00;99.90
59881;DHT22;45751;51.380;10.326;2022-09-09T02:12:07;14.10;99.90
59881;DHT22;45751;51.380;10.326;2022-09-09T02:14:44;14.10;99.90
59881;DHT22;45751;51.380;10.326;2022-09-09T02:17:15;14.10;99.90
59881;DHT22;45751;51.380;10.326;2022-09-09T02:20:19;14.10;99.90
59881;DHT22;45751;51.380;10.326;2022-09-09T02:22:53;14.10;99.90
59881;DHT22;45751;51.380;10.326;2022-09-09T02:25:24;14.10;99.90
59881;DHT22;45751;51.380;10.326;2022-09-09T02:27:56;14.10;99.90
59881;DHT22;45751;51.380;10.326;2022-09-09T02:30:27;14.10;99.90
59881;DHT22;45751;51.380;10.326;2022-09-09T02:32:58;14.10;99.90
59881;DHT22;45751;51.380;10.326;2022-09-09T02:35:40;14.10;99.90
59881;DHT22;45751;51.380;10.326;2022-09-09T02:38:11;14.20;99.90
59881;DHT22;45751;51.380;10.326;2022-09-09T02:40:43;14.10;99.90
59881;DHT22;45751;51.380;10.326;2022-09-09T02:43:10;14.20;99.90
59881;DHT22;45751;51.380;10.326;2022-09-09T02:45:48;14.10;99.90
59881;DHT22;45751;51.380;10.326;2022-09-09T02:48:37;14.20;99.90
59881;DHT22;45751;51.380;10.326;2022-09-09T02:54:28;14.20;99.90
59881;DHT22;45751;51.380;10.326;2022-09-09T02:57:16;14.20;99.90
59881;DHT22;45751;51.380;10.326;2022-09-09T02:59:46;14.30;99.90
59881;DHT22;45751;51.380;10.326;2022-09-09T03:02:13;14.30;99.90
59881;DHT22;45751;51.380;10.326;2022-09-09T03:04:42;14.30;99.90
59881;DHT22;45751;51.380;10.326;2022-09-09T03:07:12;14.30;99.90
59881;DHT22;45751;51.380;10.326;2022-09-09T03:09:40;14.30;99.90
59881;DHT22;45751;51.380;10.326;2022-09-09T03:12:09;14.30;99.90
59881;DHT22;45751;51.380;10.326;2022-09-09T03:14:38;14.30;99.90
59881;DHT22;45751;51.380;10.326;2022-09-09T03:17:06;14.30;99.90
59881;DHT22;45751;51.380;10.326;2022-09-09T03:19:37;14.40;99.90
59881;DHT22;45751;51.380;10.326;2022-09-09T03:22:09;14.40;99.90
59881;DHT22;45751;51.380;10.326;2022-09-09T03:24:38;14.40;99.90
59881;DHT22;45751;51.380;10.326;2022-09-09T03:27:05;14.40;99.90
59881;DHT22;45751;51.380;10.326;2022-09-09T03:29:34;14.40;99.90
59881;DHT22;45751;51.380;10.326;2022-09-09T03:32:05;14.50;99.90
59881;DHT22;45751;51.380;10.326;2022-09-09T03:34:32;14.40;99.90
59881;DHT22;45751;51.380;10.326;2022-09-09T03:37:00;14.50;99.90
59881;DHT22;45751;51.380;10.326;2022-09-09T03:39:28;14.50;99.90
59881;DHT22;45751;51.380;10.326;2022-09-09T03:41:56;14.50;99.90
59881;DHT22;45751;51.380;10.326;2022-09-09T03:44:22;14.50;99.90
59881;DHT22;45751;51.380;10.326;2022-09-09T03:46:49;14.60;99.90
59881;DHT22;45751;51.380;10.326;2022-09-09T03:49:16;14.60;99.90
59881;DHT22;45751;51.380;10.326;2022-09-09T03:51:43;14.60;99.90
59881;DHT22;45751;51.380;10.326;2022-09-09T03:54:13;14.60;99.90
59881;DHT22;45751;51.380;10.326;2022-09-09T03:56:40;14.60;99.90
59881;DHT22;45751;51.380;10.326;2022-09-09T03:59:10;14.60;99.90
59881;DHT22;45751;51.380;10.326;2022-09-09T04:01:37;14.60;99.90
59881;DHT22;45751;51.380;10.326;2022-09-09T04:04:04;14.60;99.90
59881;DHT22;45751;51.380;10.326;2022-09-09T04:06:31;14.60;99.90
59881;DHT22;45751;51.380;10.326;2022-09-09T04:08:58;14.60;99.90
59881;DHT22;45751;51.380;10.326;2022-09-09T04:11:25;14.60;99.90
59881;DHT22;45751;51.380;10.326;2022-09-09T04:13:54;14.60;99.90
59881;DHT22;45751;51.380;10.326;2022-09-09T04:16:21;14.60;99.90
59881;DHT22;45751;51.380;10.326;2022-09-09T04:18:48;14.60;99.90
59881;DHT22;45751;51.380;10.326;2022-09-09T04:21:16;14.50;99.90
59881;DHT22;45751;51.380;10.326;2022-09-09T04:23:44;14.50;99.90
59881;DHT22;45751;51.380;10.326;2022-09-09T04:26:13;14.50;99.90
59881;DHT22;45751;51.380;10.326;2022-09-09T04:28:40;14.50;99.90
59881;DHT22;45751;51.380;10.326;2022-09-09T04:31:20;14.50;99.90
59881;DHT22;45751;51.380;10.326;2022-09-09T04:33:52;14.50;99.90
59881;DHT22;45751;51.380;10.326;2022-09-09T04:36:20;14.50;99.90
59881;DHT22;45751;51.380;10.326;2022-09-09T04:38:49;14.50;99.90
59881;DHT22;45751;51.380;10.326;2022-09-09T04:41:16;14.40;99.90
59881;DHT22;45751;51.380;10.326;2022-09-09T04:43:45;14.40;99.90
59881;DHT22;45751;51.380;10.326;2022-09-09T04:46:14;14.40;99.90
59881;DHT22;45751;51.380;10.326;2022-09-09T04:48:42;14.40;99.90
59881;DHT22;45751;51.380;10.326;2022-09-09T04:51:12;14.30;99.90
59881;DHT22;45751;51.380;10.326;2022-09-09T04:53:40;14.30;99.90
59881;DHT22;45751;51.380;10.326;2022-09-09T04:56:13;14.30;99.90
59881;DHT22;45751;51.380;10.326;2022-09-09T04:58:44;14.30;99.90
59881;DHT22;45751;51.380;10.326;2022-09-09T05:01:16;14.20;99.90
59881;DHT22;45751;51.380;10.326;2022-09-09T05:03:48;14.20;99.90
59881;DHT22;45751;51.380;10.326;2022-09-09T05:06:20;14.20;99.90
59881;DHT22;45751;51.380;10.326;2022-09-09T05:08:50;14.20;99.90
59881;DHT22;45751;51.380;10.326;2022-09-09T05:11:24;14.20;99.90
59881;DHT22;45751;51.380;10.326;2022-09-09T05:13:54;14.20;99.90
59881;DHT22;45751;51.380;10.326;2022-09-09T05:16:23;14.20;99.90
59881;DHT22;45751;51.380;10.326;2022-09-09T05:18:51;14.20;99.90
59881;DHT22;45751;51.380;10.326;2022-09-09T05:21:22;14.20;99.90
59881;DHT22;45751;51.380;10.326;2022-09-09T05:23:49;14.20;99.90
59881;DHT22;45751;51.380;10.326;2022-09-09T05:26:20;14.20;99.90
59881;DHT22;45751;51.380;10.326;2022-09-09T05:28:49;14.20;99.90
59881;DHT22;45751;51.380;10.326;2022-09-09T05:31:17;14.20;99.90
59881;DHT22;45751;51.380;10.326;2022-09-09T05:33:48;14.20;99.90
59881;DHT22;45751;51.380;10.326;2022-09-09T05:36:17;14.10;99.90
59881;DHT22;45751;51.380;10.326;2022-09-09T05:38:47;14.10;99.90
59881;DHT22;45751;51.380;10.326;2022-09-09T05:41:15;14.10;99.90
59881;DHT22;45751;51.380;10.326;2022-09-09T05:43:46;14.20;99.90
59881;DHT22;45751;51.380;10.326;2022-09-09T05:46:19;14.10;99.90
59881;DHT22;45751;51.380;10.326;2022-09-09T05:48:50;14.10;99.90
59881;DHT22;45751;51.380;10.326;2022-09-09T05:51:25;14.20;99.90
59881;DHT22;45751;51.380;10.326;2022-09-09T05:53:55;14.10;99.90
59881;DHT22;45751;51.380;10.326;2022-09-09T05:56:28;14.10;99.90
59881;DHT22;45751;51.380;10.326;2022-09-09T05:58:56;14.10;99.90
59881;DHT22;45751;51.380;10.326;2022-09-09T06:01:29;14.20;99.90
59881;DHT22;45751;51.380;10.326;2022-09-09T06:03:57;14.20;99.90
59881;DHT22;45751;51.380;10.326;2022-09-09T06:06:31;14.20;99.90
59881;DHT22;45751;51.380;10.326;2022-09-09T06:09:07;14.20;99.90
59881;DHT22;45751;51.380;10.326;2022-09-09T06:11:39;14.20;99.90
59881;DHT22;45751;51.380;10.326;2022-09-09T06:14:06;14.30;99.90
59881;DHT22;45751;51.380;10.326;2022-09-09T06:16:34;14.30;99.90
59881;DHT22;45751;51.380;10.326;2022-09-09T06:19:07;14.30;99.90
59881;DHT22;45751;51.380;10.326;2022-09-09T06:21:35;14.40;99.90
59881;DHT22;45751;51.380;10.326;2022-09-09T06:24:06;14.40;99.90
59881;DHT22;45751;51.380;10.326;2022-09-09T06:26:37;14.40;99.90
59881;DHT22;45751;51.380;10.326;2022-09-09T06:29:05;14.50;99.90
59881;DHT22;45751;51.380;10.326;2022-09-09T06:31:35;14.50;99.90
59881;DHT22;45751;51.380;10.326;2022-09-09T06:34:09;14.60;99.90
59881;DHT22;45751;51.380;10.326;2022-09-09T06:36:39;14.60;99.90
59881;DHT22;45751;51.380;10.326;2022-09-09T06:39:07;14.60;99.90
59881;DHT22;45751;51.380;10.326;2022-09-09T06:41:41;14.60;99.90
59881;DHT22;45751;51.380;10.326;2022-09-09T06:44:24;14.60;99.90
59881;DHT22;45751;51.380;10.326;2022-09-09T06:46:55;14.60;99.90
59881;DHT22;45751;51.380;10.326;2022-09-09T06:49:22;14.70;99.90
59881;DHT22;45751;51.380;10.326;2022-09-09T06:51:49;14.70;99.90
59881;DHT22;45751;51.380;10.326;2022-09-09T06:54:16;14.70;99.90
59881;DHT22;45751;51.380;10.326;2022-09-09T06:56:44;14.70;99.90
59881;DHT22;45751;51.380;10.326;2022-09-09T06:59:21;14.70;99.90
59881;DHT22;45751;51.380;10.326;2022-09-09T07:01:48;14.70;99.90
59881;DHT22;45751;51.380;10.326;2022-09-09T07:04:21;14.70;99.90
59881;DHT22;45751;51.380;10.326;2022-09-09T07:06:48;14.70;99.90
59881;DHT22;45751;51.380;10.326;2022-09-09T07:09:20;14.70;99.90
59881;DHT22;45751;51.380;10.326;2022-09-09T07:11:51;14.70;99.90
59881;DHT22;45751;51.380;10.326;2022-09-09T07:14:21;14.70;99.90
59881;DHT22;45751;51.380;10.326;2022-09-09T07:16:58;14.70;99.90
59881;DHT22;45751;51.380;10.326;2022-09-09T07:19:28;14.80;99.90
59881;DHT22;45751;51.380;10.326;2022-09-09T07:21:55;14.80;99.90
59881;DHT22;45751;51.380;10.326;2022-09-09T07:24:23;14.80;99.90
59881;DHT22;45751;51.380;10.326;2022-09-09T07:26:51;14.80;99.90
59881;DHT22;45751;51.380;10.326;2022-09-09T07:29:19;14.90;99.90
59881;DHT22;45751;51.380;10.326;2022-09-09T07:31:48;14.90;99.90
59881;DHT22;45751;51.380;10.326;2022-09-09T07:34:20;14.90;99.90
59881;DHT22;45751;51.380;10.326;2022-09-09T07:36:47;14.90;99.90
59881;DHT22;45751;51.380;10.326;2022-09-09T07:39:17;15.00;99.90
59881;DHT22;45751;51.380;10.326;2022-09-09T07:41:51;15.00;99.90
59881;DHT22;45751;51.380;10.326;2022-09-09T07:44:23;15.10;99.90
59881;DHT22;45751;51.380;10.326;2022-09-09T07:46:58;15.10;99.90
59881;DHT22;45751;51.380;10.326;2022-09-09T07:49:30;15.20;99.90
59881;DHT22;45751;51.380;10.326;2022-09-09T07:52:00;15.20;99.90
59881;DHT22;45751;51.380;10.326;2022-09-09T07:54:28;15.30;99.90
59881;DHT22;45751;51.380;10.326;2022-09-09T07:56:56;15.30;99.90
59881;DHT22;45751;51.380;10.326;2022-09-09T07:59:27;15.30;99.90
59881;DHT22;45751;51.380;10.326;2022-09-09T08:01:57;15.40;99.90
59881;DHT22;45751;51.380;10.326;2022-09-09T08:04:27;15.40;99.90
59881;DHT22;45751;51.380;10.326;2022-09-09T08:06:59;15.50;99.90
59881;DHT22;45751;51.380;10.326;2022-09-09T08:09:29;15.50;99.90
59881;DHT22;45751;51.380;10.326;2022-09-09T08:12:06;15.60;99.90
59881;DHT22;45751;51.380;10.326;2022-09-09T08:14:33;15.70;99.90
59881;DHT22;45751;51.380;10.326;2022-09-09T08:17:01;15.70;99.90
59881;DHT22;45751;51.380;10.326;2022-09-09T08:19:29;15.80;99.90
59881;DHT22;45751;51.380;10.326;2022-09-09T08:21:59;15.80;99.90
59881;DHT22;45751;51.380;10.326;2022-09-09T08:24:29;15.90;99.90
59881;DHT22;45751;51.380;10.326;2022-09-09T08:26:56;15.90;99.90
59881;DHT22;45751;51.380;10.326;2022-09-09T08:29:23;15.90;99.90
59881;DHT22;45751;51.380;10.326;2022-09-09T08:31:55;16.00;99.90
59881;DHT22;45751;51.380;10.326;2022-09-09T08:34:25;16.00;99.90
59881;DHT22;45751;51.380;10.326;2022-09-09T08:36:53;16.10;99.70
59881;DHT22;45751;51.380;10.326;2022-09-09T08:39:26;16.10;99.40
59881;DHT22;45751;51.380;10.326;2022-09-09T08:53:16;16.30;98.70
59881;DHT22;45751;51.380;10.326;2022-09-09T08:55:52;16.30;98.70
59881;DHT22;45751;51.380;10.326;2022-09-09T08:58:45;16.30;98.60
59881;DHT22;45751;51.380;10.326;2022-09-09T09:05:04;16.50;97.30
59881;DHT22;45751;51.380;10.326;2022-09-09T09:13:01;16.60;95.70
59881;DHT22;45751;51.380;10.326;2022-09-09T09:15:37;16.60;95.70
59881;DHT22;45751;51.380;10.326;2022-09-09T09:18:05;16.70;96.10
59881;DHT22;45751;51.380;10.326;2022-09-09T09:20:47;16.70;95.20
59881;DHT22;45751;51.380;10.326;2022-09-09T09:23:22;16.80;94.90
59881;DHT22;45751;51.380;10.326;2022-09-09T09:25:53;16.80;95.30
59881;DHT22;45751;51.380;10.326;2022-09-09T09:28:29;16.90;94.40
59881;DHT22;45751;51.380;10.326;2022-09-09T09:31:10;16.90;94.30
59881;DHT22;45751;51.380;10.326;2022-09-09T09:36:08;16.90;92.90
59881;DHT22;45751;51.380;10.326;2022-09-09T09:38:37;16.90;91.20
59881;DHT22;45751;51.380;10.326;2022-09-09T09:41:40;17.00;91.30
59881;DHT22;45751;51.380;10.326;2022-09-09T09:44:25;16.90;91.10
59881;DHT22;45751;51.380;10.326;2022-09-09T09:46:52;16.90;91.20
59881;DHT22;45751;51.380;10.326;2022-09-09T09:49:20;17.00;91.40
59881;DHT22;45751;51.380;10.326;2022-09-09T09:51:47;17.00;91.60
59881;DHT22;45751;51.380;10.326;2022-09-09T09:54:16;17.00;90.50
59881;DHT22;45751;51.380;10.326;2022-09-09T09:56:51;17.10;90.40
59881;DHT22;45751;51.380;10.326;2022-09-09T09:59:22;17.10;89.20
59881;DHT22;45751;51.380;10.326;2022-09-09T10:05:05;17.20;85.80
59881;DHT22;45751;51.380;10.326;2022-09-09T10:07:34;17.20;84.50
59881;DHT22;45751;51.380;10.326;2022-09-09T10:10:04;17.30;84.00
59881;DHT22;45751;51.380;10.326;2022-09-09T10:12:53;17.30;83.80
59881;DHT22;45751;51.380;10.326;2022-09-09T10:18:47;17.30;83.30
59881;DHT22;45751;51.380;10.326;2022-09-09T10:21:28;17.30;83.90
59881;DHT22;45751;51.380;10.326;2022-09-09T10:26:59;17.40;84.50
59881;DHT22;45751;51.380;10.326;2022-09-09T10:35:35;17.50;83.40
59881;DHT22;45751;51.380;10.326;2022-09-09T10:38:29;17.50;82.40
59881;DHT22;45751;51.380;10.326;2022-09-09T10:46:47;17.70;79.50
59881;DHT22;45751;51.380;10.326;2022-09-09T10:52:27;17.80;78.50
59881;DHT22;45751;51.380;10.326;2022-09-09T10:55:17;17.80;76.30
59881;DHT22;45751;51.380;10.326;2022-09-09T10:57:52;17.90;75.30
59881;DHT22;45751;51.380;10.326;2022-09-09T11:00:43;17.90;75.00
59881;DHT22;45751;51.380;10.326;2022-09-09T11:03:19;18.00;74.30
59881;DHT22;45751;51.380;10.326;2022-09-09T11:06:06;18.00;75.00
59881;DHT22;45751;51.380;10.326;2022-09-09T11:08:36;18.10;74.30
59881;DHT22;45751;51.380;10.326;2022-09-09T11:11:20;18.10;76.10
59881;DHT22;45751;51.380;10.326;2022-09-09T11:16:36;18.20;75.90
59881;DHT22;45751;51.380;10.326;2022-09-09T11:21:53;18.30;72.80
59881;DHT22;45751;51.380;10.326;2022-09-09T11:24:23;18.30;73.50
59881;DHT22;45751;51.380;10.326;2022-09-09T11:26:54;18.40;73.40
59881;DHT22;45751;51.380;10.326;2022-09-09T11:38:46;18.60;74.10
59881;DHT22;45751;51.380;10.326;2022-09-09T11:41:15;18.70;74.30
59881;DHT22;45751;51.380;10.326;2022-09-09T11:43:52;18.80;72.00
59881;DHT22;45751;51.380;10.326;2022-09-09T11:46:35;18.80;71.00
59881;DHT22;45751;51.380;10.326;2022-09-09T11:49:05;18.80;70.90
59881;DHT22;45751;51.380;10.326;2022-09-09T11:51:40;18.80;70.50
59881;DHT22;45751;51.380;10.326;2022-09-09T11:54:30;18.80;69.30
59881;DHT22;45751;51.380;10.326;2022-09-09T11:56:58;18.90;70.20
59881;DHT22;45751;51.380;10.326;2022-09-09T11:59:35;19.00;68.30
59881;DHT22;45751;51.380;10.326;2022-09-09T12:02:32;19.10;67.20
59881;DHT22;45751;51.380;10.326;2022-09-09T12:05:17;19.20;65.10
59881;DHT22;45751;51.380;10.326;2022-09-09T12:07:54;19.30;63.10
59881;DHT22;45751;51.380;10.326;2022-09-09T12:10:34;19.40;62.30
59881;DHT22;45751;51.380;10.326;2022-09-09T12:13:15;19.60;62.10
59881;DHT22;45751;51.380;10.326;2022-09-09T12:15:50;19.70;60.70
59881;DHT22;45751;51.380;10.326;2022-09-09T12:18:38;19.80;59.90
59881;DHT22;45751;51.380;10.326;2022-09-09T12:21:46;19.80;60.20
59881;DHT22;45751;51.380;10.326;2022-09-09T12:24:23;19.80;60.10
59881;DHT22;45751;51.380;10.326;2022-09-09T12:30:17;19.90;60.20
59881;DHT22;45751;51.380;10.326;2022-09-09T12:32:44;20.10;59.10
59881;DHT22;45751;51.380;10.326;2022-09-09T12:35:12;20.10;58.20
59881;DHT22;45751;51.380;10.326;2022-09-09T12:37:50;20.20;57.10
59881;DHT22;45751;51.380;10.326;2022-09-09T12:40:28;20.30;58.00
59881;DHT22;45751;51.380;10.326;2022-09-09T12:42:56;20.40;57.10
59881;DHT22;45751;51.380;10.326;2022-09-09T12:45:25;20.50;56.10
59881;DHT22;45751;51.380;10.326;2022-09-09T12:48:07;20.60;55.50
59881;DHT22;45751;51.380;10.326;2022-09-09T12:50:53;20.50;55.00
59881;DHT22;45751;51.380;10.326;2022-09-09T12:53:35;20.40;54.90
59881;DHT22;45751;51.380;10.326;2022-09-09T12:56:06;20.30;55.40
59881;DHT22;45751;51.380;10.326;2022-09-09T12:58:36;20.30;55.20
59881;DHT22;45751;51.380;10.326;2022-09-09T13:01:05;20.40;53.60
59881;DHT22;45751;51.380;10.326;2022-09-09T13:03:33;20.40;53.50
59881;DHT22;45751;51.380;10.326;2022-09-09T13:06:18;20.50;53.30
59881;DHT22;45751;51.380;10.326;2022-09-09T13:08:46;20.60;51.70
59881;DHT22;45751;51.380;10.326;2022-09-09T13:11:17;20.70;50.30
59881;DHT22;45751;51.380;10.326;2022-09-09T13:13:50;20.80;50.80
59881;DHT22;45751;51.380;10.326;2022-09-09T13:16:29;20.80;51.10
59881;DHT22;45751;51.380;10.326;2022-09-09T13:19:15;20.90;51.60
59881;DHT22;45751;51.380;10.326;2022-09-09T13:21:43;21.00;51.50
59881;DHT22;45751;51.380;10.326;2022-09-09T13:24:39;21.00;52.00
59881;DHT22;45751;51.380;10.326;2022-09-09T13:27:30;21.10;53.00
59881;DHT22;45751;51.380;10.326;2022-09-09T13:29:57;21.10;52.50
59881;DHT22;45751;51.380;10.326;2022-09-09T13:32:25;21.30;52.60
59881;DHT22;45751;51.380;10.326;2022-09-09T13:34:58;21.40;52.50
59881;DHT22;45751;51.380;10.326;2022-09-09T13:40:01;21.60;51.80
59881;DHT22;45751;51.380;10.326;2022-09-09T13:42:32;21.70;51.80
59881;DHT22;45751;51.380;10.326;2022-09-09T13:45:02;21.80;51.20
59881;DHT22;45751;51.380;10.326;2022-09-09T13:47:33;21.90;51.40
59881;DHT22;45751;51.380;10.326;2022-09-09T13:50:27;22.00;50.40
59881;DHT22;45751;51.380;10.326;2022-09-09T13:52:55;22.20;49.10
59881;DHT22;45751;51.380;10.326;2022-09-09T13:55:27;22.20;47.00
59881;DHT22;45751;51.380;10.326;2022-09-09T13:57:59;22.20;46.50
59881;DHT22;45751;51.380;10.326;2022-09-09T14:00:29;22.30;46.10
59881;DHT22;45751;51.380;10.326;2022-09-09T14:02:57;22.40;46.20
59881;DHT22;45751;51.380;10.326;2022-09-09T14:05:24;22.50;45.90
59881;DHT22;45751;51.380;10.326;2022-09-09T14:07:51;22.50;45.20
59881;DHT22;45751;51.380;10.326;2022-09-09T14:10:19;22.50;45.10
59881;DHT22;45751;51.380;10.326;2022-09-09T14:12:46;22.30;45.50
59881;DHT22;45751;51.380;10.326;2022-09-09T14:15:13;22.30;45.50
59881;DHT22;45751;51.380;10.326;2022-09-09T14:17:41;22.30;45.30
59881;DHT22;45751;51.380;10.326;2022-09-09T14:20:09;22.30;45.40
59881;DHT22;45751;51.380;10.326;2022-09-09T14:22:37;22.30;45.00
59881;DHT22;45751;51.380;10.326;2022-09-09T14:25:06;22.30;45.20
59881;DHT22;45751;51.380;10.326;2022-09-09T14:27:33;22.40;44.50
59881;DHT22;45751;51.380;10.326;2022-09-09T14:30:00;22.40;44.70
59881;DHT22;45751;51.380;10.326;2022-09-09T14:32:28;22.40;44.30
59881;DHT22;45751;51.380;10.326;2022-09-09T14:34:55;22.60;44.60
59881;DHT22;45751;51.380;10.326;2022-09-09T14:37:22;22.60;45.00
59881;DHT22;45751;51.380;10.326;2022-09-09T14:39:50;22.70;44.30
59881;DHT22;45751;51.380;10.326;2022-09-09T14:42:18;22.80;43.70
59881;DHT22;45751;51.380;10.326;2022-09-09T14:44:45;22.70;44.00
59881;DHT22;45751;51.380;10.326;2022-09-09T14:47:12;22.70;44.10
59881;DHT22;45751;51.380;10.326;2022-09-09T14:49:40;22.60;44.40
59881;DHT22;45751;51.380;10.326;2022-09-09T14:52:12;22.50;44.60
59881;DHT22;45751;51.380;10.326;2022-09-09T14:54:40;22.40;44.80
59881;DHT22;45751;51.380;10.326;2022-09-09T14:57:07;22.40;44.90
59881;DHT22;45751;51.380;10.326;2022-09-09T14:59:34;22.50;44.90
59881;DHT22;45751;51.380;10.326;2022-09-09T15:02:01;22.60;44.20
59881;DHT22;45751;51.380;10.326;2022-09-09T15:04:31;22.80;44.10
59881;DHT22;45751;51.380;10.326;2022-09-09T15:06:58;22.70;43.90
59881;DHT22;45751;51.380;10.326;2022-09-09T15:09:25;22.80;43.90
59881;DHT22;45751;51.380;10.326;2022-09-09T15:11:53;22.80;44.40
59881;DHT22;45751;51.380;10.326;2022-09-09T15:14:20;22.90;44.30
59881;DHT22;45751;51.380;10.326;2022-09-09T15:16:51;22.90;44.50
59881;DHT22;45751;51.380;10.326;2022-09-09T15:19:18;23.00;44.30
59881;DHT22;45751;51.380;10.326;2022-09-09T15:21:45;23.20;43.30
59881;DHT22;45751;51.380;10.326;2022-09-09T15:24:12;23.20;42.20
59881;DHT22;45751;51.380;10.326;2022-09-09T15:26:40;23.20;42.20
59881;DHT22;45751;51.380;10.326;2022-09-09T15:29:07;23.20;41.80
59881;DHT22;45751;51.380;10.326;2022-09-09T15:31:35;23.30;41.70
59881;DHT22;45751;51.380;10.326;2022-09-09T15:34:05;23.20;41.80
59881;DHT22;45751;51.380;10.326;2022-09-09T15:36:39;23.20;41.50
59881;DHT22;45751;51.380;10.326;2022-09-09T15:39:10;23.20;41.50
59881;DHT22;45751;51.380;10.326;2022-09-09T15:41:39;23.20;41.60
59881;DHT22;45751;51.380;10.326;2022-09-09T15:44:06;23.20;41.80
59881;DHT22;45751;51.380;10.326;2022-09-09T15:51:43;23.00;42.10
59881;DHT22;45751;51.380;10.326;2022-09-09T15:54:13;22.90;42.30
59881;DHT22;45751;51.380;10.326;2022-09-09T15:56:40;22.90;42.70
59881;DHT22;45751;51.380;10.326;2022-09-09T15:59:08;22.90;43.00
59881;DHT22;45751;51.380;10.326;2022-09-09T16:01:36;22.90;43.00
59881;DHT22;45751;51.380;10.326;2022-09-09T16:04:06;22.80;42.90
59881;DHT22;45751;51.380;10.326;2022-09-09T16:06:33;22.80;43.30
59881;DHT22;45751;51.380;10.326;2022-09-09T16:09:03;22.70;43.50
59881;DHT22;45751;51.380;10.326;2022-09-09T16:11:33;22.70;43.80
59881;DHT22;45751;51.380;10.326;2022-09-09T16:14:00;22.70;44.10
59881;DHT22;45751;51.380;10.326;2022-09-09T16:16:29;22.60;44.10
59881;DHT22;45751;51.380;10.326;2022-09-09T16:18:58;22.50;44.20
59881;DHT22;45751;51.380;10.326;2022-09-09T16:21:34;22.30;44.40
59881;DHT22;45751;51.380;10.326;2022-09-09T16:24:04;22.30;44.90
59881;DHT22;45751;51.380;10.326;2022-09-09T16:26:34;22.30;45.00
59881;DHT22;45751;51.380;10.326;2022-09-09T16:29:03;22.30;46.00
59881;DHT22;45751;51.380;10.326;2022-09-09T16:31:31;22.30;44.40
59881;DHT22;45751;51.380;10.326;2022-09-09T16:34:01;22.30;44.10
59881;DHT22;45751;51.380;10.326;2022-09-09T16:36:32;22.40;44.20
59881;DHT22;45751;51.380;10.326;2022-09-09T16:39:04;22.40;44.30
59881;DHT22;45751;51.380;10.326;2022-09-09T16:41:32;22.30;44.50
59881;DHT22;45751;51.380;10.326;2022-09-09T16:44:02;22.40;44.50
59881;DHT22;45751;51.380;10.326;2022-09-09T16:46:31;22.30;44.80
59881;DHT22;45751;51.380;10.326;2022-09-09T16:49:03;22.30;44.80
59881;DHT22;45751;51.380;10.326;2022-09-09T16:51:35;22.30;45.10
59881;DHT22;45751;51.380;10.326;2022-09-09T16:54:04;22.30;45.10
59881;DHT22;45751;51.380;10.326;2022-09-09T16:56:35;22.30;45.20
59881;DHT22;45751;51.380;10.326;2022-09-09T16:59:10;22.20;45.20
59881;DHT22;45751;51.380;10.326;2022-09-09T17:01:39;22.20;45.60
59881;DHT22;45751;51.380;10.326;2022-09-09T17:04:18;22.10;46.00
59881;DHT22;45751;51.380;10.326;2022-09-09T17:06:52;22.00;46.30
59881;DHT22;45751;51.380;10.326;2022-09-09T17:09:21;22.00;46.40
59881;DHT22;45751;51.380;10.326;2022-09-09T17:11:50;22.00;46.40
59881;DHT22;45751;51.380;10.326;2022-09-09T17:14:20;21.90;46.40
59881;DHT22;45751;51.380;10.326;2022-09-09T17:16:47;21.90;46.80
59881;DHT22;45751;51.380;10.326;2022-09-09T17:19:14;21.80;47.10
59881;DHT22;45751;51.380;10.326;2022-09-09T17:21:42;21.60;47.30
59881;DHT22;45751;51.380;10.326;2022-09-09T17:24:29;21.60;48.00
59881;DHT22;45751;51.380;10.326;2022-09-09T17:26:56;21.50;47.70
59881;DHT22;45751;51.380;10.326;2022-09-09T17:29:24;21.30;48.10